Time;durP1;ratioP1;P1;durP2;ratioP2;P2;SDS_P1;SDS_P2;PMS_P1;PMS_P2;Temp;Humidity;BMP_temperature;BMP_pressure;BME280_temperature;BME280_humidity;BME280_pressure;Samples;Min_cycle;Max_cycle;Signal;HPM_P1;HPM_P2
2022/11/01 00:02:01;;;;;;;1.60;1.55;;;;;;;16.07;73.00;100797.41;5033493;28;20116;-78
2022/11/01 00:04:27;;;;;;;0.10;0.10;;;;;;;16.07;73.40;100786.72;5038188;28;20083;-78
2022/11/01 00:06:54;;;;;;;0.57;0.57;;;;;;;16.06;73.31;100781.44;5047646;28;20025;-78
2022/11/01 00:09:20;;;;;;;1.50;1.45;;;;;;;16.12;73.31;100774.00;5039021;28;20043;-78
2022/11/01 00:11:46;;;;;;;1.98;1.08;;;;;;;16.15;72.87;100773.03;5035609;28;20025;-78
2022/11/01 00:14:14;;;;;;;0.10;0.10;;;;;;;16.16;73.41;100778.31;5044255;28;20116;-78
2022/11/01 00:16:40;;;;;;;20.98;1.17;;;;;;;16.17;73.21;100777.38;5036901;28;20512;-78
2022/11/01 00:19:07;;;;;;;0.10;0.10;;;;;;;16.16;73.50;100774.75;5036334;28;20037;-78
2022/11/01 00:21:33;;;;;;;1.55;1.17;;;;;;;16.21;73.13;100774.56;5040994;28;20059;-78
2022/11/01 00:23:59;;;;;;;0.00;0.00;;;;;;;16.22;73.12;100774.47;5042454;28;20674;-78
2022/11/01 00:26:25;;;;;;;0.30;0.30;;;;;;;16.27;73.06;100774.28;5043476;28;20192;-78
2022/11/01 00:28:52;;;;;;;0.10;0.10;;;;;;;16.29;73.27;100775.09;5039196;28;20033;-78
2022/11/01 00:31:20;;;;;;;0.80;0.80;;;;;;;16.31;72.92;100766.06;5041878;28;21274;-78
2022/11/01 00:33:46;;;;;;;0.43;0.43;;;;;;;16.36;72.88;100765.81;5028119;28;20026;-77
2022/11/01 00:36:13;;;;;;;0.47;0.47;;;;;;;16.37;73.03;100756.03;5040362;28;20104;-77
2022/11/01 00:38:39;;;;;;;0.10;0.10;;;;;;;16.36;72.97;100748.94;5033767;28;20079;-78
2022/11/01 00:41:06;;;;;;;0.57;0.57;;;;;;;16.41;72.94;100750.47;5044043;28;20404;-78
2022/11/01 00:43:33;;;;;;;0.65;0.65;;;;;;;16.38;72.86;100742.56;5017954;28;20141;-78
2022/11/01 00:46:01;;;;;;;0.10;0.10;;;;;;;16.47;72.75;100751.97;5026406;28;20037;-78
2022/11/01 00:48:27;;;;;;;0.10;0.10;;;;;;;16.48;73.13;100743.88;5018234;28;20029;-78
2022/11/01 00:50:53;;;;;;;0.10;0.10;;;;;;;16.50;72.87;100744.69;5025444;28;20401;-78
2022/11/01 00:53:20;;;;;;;0.10;0.10;;;;;;;16.55;72.64;100738.25;5027727;28;20108;-78
2022/11/01 00:55:46;;;;;;;0.40;0.40;;;;;;;16.58;72.47;100740.78;5027462;28;20026;-78
2022/11/01 00:58:13;;;;;;;0.13;0.13;;;;;;;16.55;72.28;100743.59;5033393;28;20026;-78
2022/11/01 01:00:39;;;;;;;0.20;0.20;;;;;;;16.58;72.69;100738.09;5023344;28;20038;-78
2022/11/01 01:03:05;;;;;;;0.40;0.40;;;;;;;16.62;72.47;100735.22;5024829;28;20033;-78
2022/11/01 01:05:33;;;;;;;0.10;0.10;;;;;;;16.56;72.31;100739.97;5015024;28;20079;-78
2022/11/01 01:07:59;;;;;;;0.10;0.10;;;;;;;16.62;72.23;100737.91;5031777;28;20071;-78
2022/11/01 01:10:25;;;;;;;0.10;0.10;;;;;;;16.64;72.30;100732.47;5019329;28;20061;-78
2022/11/01 01:12:51;;;;;;;0.10;0.10;;;;;;;16.65;72.27;100729.72;5029841;28;20033;-78
2022/11/01 01:15:18;;;;;;;0.00;0.00;;;;;;;16.65;72.18;100724.38;5022862;28;20152;-78
2022/11/01 01:17:44;;;;;;;0.32;0.32;;;;;;;16.66;72.30;100726.09;5028699;28;20112;-78
2022/11/01 01:20:11;;;;;;;0.10;0.10;;;;;;;16.66;72.26;100726.09;5023896;28;20115;-78
2022/11/01 01:22:37;;;;;;;0.10;0.10;;;;;;;16.71;72.31;100728.56;5032156;28;20397;-78
2022/11/01 01:25:03;;;;;;;0.30;0.30;;;;;;;16.68;72.15;100722.50;5024659;28;20108;-78
2022/11/01 01:27:29;;;;;;;0.40;0.40;;;;;;;16.63;72.31;100720.88;5030819;28;20079;-78
2022/11/01 01:29:55;;;;;;;0.10;0.10;;;;;;;16.65;72.58;100719.03;5024300;28;20041;-78
2022/11/01 01:32:23;;;;;;;0.15;0.15;;;;;;;16.64;72.93;100717.28;5025383;28;20030;-78
2022/11/01 01:34:49;;;;;;;0.10;0.10;;;;;;;16.65;73.12;100724.38;5026375;28;20037;-78
2022/11/01 01:37:15;;;;;;;0.10;0.10;;;;;;;16.76;72.82;100729.22;5029313;28;20496;-79
2022/11/01 01:39:42;;;;;;;0.38;0.38;;;;;;;16.81;72.93;100715.63;5026783;28;20477;-78
2022/11/01 01:47:32;;;;;;;0.70;0.70;;;;;;;16.90;72.80;100707.13;5114145;27;20574;-76
2022/11/01 01:50:09;;;;;;;0.10;0.10;;;;;;;16.97;72.87;100718.44;5086664;28;20107;-77
2022/11/01 01:52:47;;;;;;;2.05;0.63;;;;;;;17.07;72.87;100716.19;5085942;28;20040;-77
2022/11/01 01:55:17;;;;;;;0.80;0.80;;;;;;;17.09;72.77;100716.97;5085695;28;20672;-77
2022/11/01 01:57:44;;;;;;;0.10;0.10;;;;;;;17.14;72.60;100705.09;5081292;28;20029;-77
2022/11/01 02:00:11;;;;;;;0.65;0.65;;;;;;;17.18;72.46;100710.31;5081834;28;20086;-78
2022/11/01 02:02:40;;;;;;;0.38;0.38;;;;;;;17.23;72.45;100706.44;5088929;28;20055;-78
2022/11/01 02:05:35;;;;;;;0.38;0.38;;;;;;;17.27;72.25;100696.44;5087012;28;20095;-78
2022/11/01 02:08:03;;;;;;;0.10;0.10;;;;;;;17.21;72.23;100700.31;5087222;28;20060;-79
2022/11/01 02:10:31;;;;;;;0.35;0.35;;;;;;;17.20;72.48;100703.94;5086289;28;20043;-78
2022/11/01 02:12:57;;;;;;;0.50;0.50;;;;;;;17.18;72.46;100696.91;5087590;28;20026;-78
2022/11/01 02:15:34;;;;;;;0.22;0.22;;;;;;;17.17;72.68;100705.88;5082726;28;20406;-78
2022/11/01 02:18:17;;;;;;;0.22;0.22;;;;;;;17.14;72.87;100707.75;5087466;28;20032;-77
2022/11/01 02:21:23;;;;;;;0.20;0.20;;;;;;;17.21;73.02;100704.78;5087546;28;20027;-78
2022/11/01 02:24:29;;;;;;;0.43;0.43;;;;;;;17.25;73.02;100717.09;5086223;28;20044;-78
2022/11/01 02:32:57;;;;;;;2.00;0.85;;;;;;;17.42;72.71;100721.56;5097928;27;20797;-77
2022/11/01 02:38:08;;;;;;;0.20;0.20;;;;;;;17.53;72.29;100723.72;5086656;27;20359;-79
2022/11/01 02:43:18;;;;;;;0.10;0.10;;;;;;;17.59;71.83;100731.44;5062340;28;20403;-79
2022/11/01 02:45:49;;;;;;;1.85;1.02;;;;;;;17.61;71.43;100734.91;5053859;28;20507;-79
2022/11/01 02:48:18;;;;;;;0.20;0.20;;;;;;;17.66;70.92;100738.22;5050752;28;20029;-79
2022/11/01 02:50:51;;;;;;;0.20;0.20;;;;;;;17.72;70.60;100743.28;5062466;28;20086;-79
2022/11/01 02:53:17;;;;;;;0.30;0.30;;;;;;;17.77;69.84;100745.72;5060592;28;20029;-79
2022/11/01 02:55:43;;;;;;;0.10;0.10;;;;;;;17.80;69.05;100745.53;5060859;28;20098;-79
2022/11/01 02:58:19;;;;;;;0.20;0.20;;;;;;;17.79;68.04;100759.88;5057537;28;20068;-79
2022/11/01 03:00:45;;;;;;;0.47;0.47;;;;;;;17.75;67.62;100774.41;5058424;28;20523;-78
2022/11/01 03:03:18;;;;;;;0.13;0.13;;;;;;;17.75;66.70;100775.25;5057775;28;20532;-78
2022/11/01 03:08:39;;;;;;;0.05;0.05;;;;;;;17.73;64.33;100787.88;5048092;28;20422;-78
2022/11/01 03:11:16;;;;;;;0.10;0.10;;;;;;;17.60;63.85;100802.84;5041286;28;20054;-78
2022/11/01 03:16:59;;;;;;;1.55;0.93;;;;;;;17.39;63.45;100805.63;5064778;28;20390;-78
2022/11/01 03:19:43;;;;;;;0.13;0.13;;;;;;;17.29;63.10;100815.91;5058076;28;20472;-79
2022/11/01 03:27:38;;;;;;;0.10;0.10;;;;;;;17.10;62.62;100821.28;5104007;27;20931;-76
2022/11/01 03:30:09;;;;;;;0.10;0.10;;;;;;;16.93;62.63;100821.22;5086561;28;20031;-76
2022/11/01 03:32:56;;;;;;;0.10;0.10;;;;;;;16.89;62.25;100833.84;5092435;28;20024;-77
2022/11/01 03:35:28;;;;;;;0.10;0.10;;;;;;;16.80;61.96;100835.16;5086048;28;20090;-76
2022/11/01 03:38:00;;;;;;;0.10;0.10;;;;;;;16.75;62.25;100836.31;5085624;28;20450;-80
2022/11/01 03:40:30;;;;;;;1.58;0.85;;;;;;;16.71;62.30;100840.94;5088889;28;20025;-77
2022/11/01 03:43:03;;;;;;;0.17;0.17;;;;;;;16.54;62.41;100852.38;5086672;28;20027;-78
2022/11/01 03:45:32;;;;;;;0.15;0.15;;;;;;;16.57;62.74;100856.72;5087332;28;20406;-78
2022/11/01 03:48:00;;;;;;;0.10;0.10;;;;;;;16.58;62.77;100856.66;5086886;28;20024;-77
2022/11/01 03:50:27;;;;;;;0.10;0.10;;;;;;;16.40;63.30;100863.72;5085831;28;20501;-78
2022/11/01 03:52:54;;;;;;;0.10;0.10;;;;;;;16.39;63.04;100872.66;5086627;28;20031;-77
2022/11/01 03:55:21;;;;;;;0.10;0.10;;;;;;;16.32;63.04;100871.19;5086661;28;20040;-78
2022/11/01 04:03:02;;;;;;;0.10;0.10;;;;;;;16.20;62.14;100887.75;5099653;27;20364;-78
2022/11/01 04:05:30;;;;;;;0.10;0.10;;;;;;;16.21;61.44;100906.41;5085576;28;20024;-78
2022/11/01 04:07:56;;;;;;;0.10;0.10;;;;;;;16.07;61.48;100901.63;5083507;28;20735;-78
2022/11/01 04:10:24;;;;;;;0.10;0.10;;;;;;;16.20;61.35;100904.69;5087154;28;20024;-78
2022/11/01 04:12:51;;;;;;;0.63;0.63;;;;;;;16.08;60.99;100948.81;5084975;28;20074;-79
2022/11/01 04:20:50;;;;;;;0.10;0.10;;;;;;;16.10;59.52;100925.59;5087501;27;1171392;-78
2022/11/01 04:23:17;;;;;;;3.75;0.65;;;;;;;16.00;59.23;100937.59;5107405;28;20144;-78
2022/11/01 04:25:45;;;;;;;0.43;0.43;;;;;;;15.83;59.21;100939.13;5106397;28;20036;-78
2022/11/01 04:28:12;;;;;;;0.10;0.10;;;;;;;15.96;59.39;100970.69;5104762;28;20036;-78
2022/11/01 04:30:39;;;;;;;0.10;0.10;;;;;;;15.96;59.81;100936.84;5106094;28;20020;-78
2022/11/01 04:33:05;;;;;;;0.10;0.10;;;;;;;15.98;59.38;100960.81;5109796;28;20521;-79
2022/11/01 04:35:31;;;;;;;0.00;0.00;;;;;;;15.90;59.82;100958.47;5106364;28;20039;-78
2022/11/01 04:37:58;;;;;;;0.10;0.10;;;;;;;15.96;60.25;100954.66;5109250;28;20024;-78
2022/11/01 04:40:25;;;;;;;0.00;0.00;;;;;;;15.86;60.63;100951.50;5094276;28;20036;-79
2022/11/01 04:42:52;;;;;;;0.10;0.10;;;;;;;15.72;59.63;100968.03;5107569;28;20530;-78
2022/11/01 04:45:18;;;;;;;0.10;0.10;;;;;;;15.63;59.05;100949.72;5109013;28;20073;-78
2022/11/01 04:47:51;;;;;;;0.10;0.10;;;;;;;15.60;58.88;100957.84;5110161;28;20028;-78
2022/11/01 04:50:18;;;;;;;1.52;1.45;;;;;;;15.57;59.20;100960.66;5109825;28;20012;-78
2022/11/01 04:52:45;;;;;;;0.10;0.10;;;;;;;15.39;58.47;100955.09;5106044;28;20049;-78
2022/11/01 04:55:12;;;;;;;0.10;0.10;;;;;;;15.39;57.89;100963.09;5110559;28;20028;-78
2022/11/01 04:57:39;;;;;;;0.10;0.10;;;;;;;15.47;58.12;100958.31;5106343;28;20387;-79
2022/11/01 05:00:07;;;;;;;10.85;2.95;;;;;;;15.42;58.41;100962.97;5105587;28;20032;-79
2022/11/01 05:02:33;;;;;;;0.10;0.10;;;;;;;15.30;59.06;100964.31;5109449;28;20028;-78
2022/11/01 05:04:59;;;;;;;0.32;0.32;;;;;;;15.23;58.96;100975.25;5107366;28;20141;-78
2022/11/01 05:07:25;;;;;;;0.10;0.10;;;;;;;15.23;58.67;100969.94;5106523;28;20089;-79
2022/11/01 05:09:51;;;;;;;0.10;0.10;;;;;;;15.15;59.04;100955.09;5106118;28;20039;-79
2022/11/01 05:12:18;;;;;;;0.47;0.47;;;;;;;15.15;58.26;100972.88;5108784;28;20028;-79
2022/11/01 05:14:44;;;;;;;0.10;0.10;;;;;;;15.08;58.57;100961.59;5105310;28;20107;-78
2022/11/01 05:17:10;;;;;;;0.40;0.40;;;;;;;14.98;58.90;100949.53;5109527;28;20059;-79
2022/11/01 05:19:36;;;;;;;0.10;0.10;;;;;;;15.01;58.55;100957.41;5105894;28;20032;-78
2022/11/01 05:22:03;;;;;;;0.10;0.10;;;;;;;14.96;58.60;100959.38;5108334;28;20035;-79
2022/11/01 05:24:29;;;;;;;0.25;0.25;;;;;;;14.98;58.56;100952.19;5101979;28;20049;-79
2022/11/01 05:26:55;;;;;;;0.50;0.50;;;;;;;14.99;58.40;100967.25;5111776;28;20035;-79
2022/11/01 05:29:21;;;;;;;0.10;0.10;;;;;;;14.87;58.06;100977.44;5107581;28;20032;-79
2022/11/01 05:31:47;;;;;;;0.10;0.10;;;;;;;14.87;58.18;100972.09;5096554;28;20036;-79
2022/11/01 05:34:13;;;;;;;0.10;0.10;;;;;;;14.80;57.72;100978.56;5092956;28;20043;-79
2022/11/01 05:36:39;;;;;;;0.10;0.10;;;;;;;14.80;57.35;100978.56;5096337;28;20028;-79
2022/11/01 05:39:05;;;;;;;0.10;0.10;;;;;;;14.85;57.05;100973.97;5092512;28;20024;-79
2022/11/01 05:41:31;;;;;;;14.35;0.95;;;;;;;14.78;56.86;100985.78;5095963;28;20040;-79
2022/11/01 05:43:57;;;;;;;0.20;0.20;;;;;;;14.79;56.60;100975.97;5093553;28;20036;-79
2022/11/01 05:46:23;;;;;;;0.10;0.10;;;;;;;14.80;56.39;100978.56;5094180;28;20043;-79
2022/11/01 05:48:49;;;;;;;0.10;0.10;;;;;;;14.77;56.43;101004.50;5081034;28;20048;-79
2022/11/01 05:51:16;;;;;;;0.10;0.10;;;;;;;14.81;56.78;100996.31;5094052;28;20137;-79
2022/11/01 05:53:42;;;;;;;1.85;0.75;;;;;;;14.83;56.83;101005.16;5095281;28;20034;-79
2022/11/01 05:56:09;;;;;;;0.10;0.10;;;;;;;14.79;56.89;101008.88;5094946;28;20032;-79
2022/11/01 05:58:35;;;;;;;0.10;0.10;;;;;;;14.86;56.75;100994.34;5095084;28;20038;-79
2022/11/01 06:01:05;;;;;;;0.10;0.10;;;;;;;14.86;56.46;101001.50;5090495;28;20052;-79
2022/11/01 06:03:33;;;;;;;1.85;0.65;;;;;;;14.79;56.34;101019.53;5095393;28;20412;-79
2022/11/01 06:05:59;;;;;;;0.10;0.10;;;;;;;14.88;56.25;101010.34;5093395;28;20031;-79
2022/11/01 06:08:26;;;;;;;0.10;0.10;;;;;;;14.97;56.00;100999.31;5088625;28;20579;-79
2022/11/01 06:10:52;;;;;;;0.10;0.10;;;;;;;15.03;55.74;101003.56;5094079;28;20040;-79
2022/11/01 06:13:18;;;;;;;0.10;0.10;;;;;;;15.00;55.70;101007.22;5091161;28;20178;-79
2022/11/01 06:15:44;;;;;;;0.10;0.10;;;;;;;14.98;55.87;101021.56;5095554;28;20036;-79
2022/11/01 06:18:11;;;;;;;3.42;1.23;;;;;;;14.95;55.93;101040.31;5083560;28;20032;-79
2022/11/01 06:20:37;;;;;;;0.20;0.20;;;;;;;14.95;56.29;101037.66;5094491;28;20039;-79
2022/11/01 06:23:10;;;;;;;0.20;0.20;;;;;;;14.88;56.02;101035.19;5092745;28;20097;-79
2022/11/01 06:25:37;;;;;;;0.10;0.10;;;;;;;14.79;56.03;101023.97;5092679;28;20099;-79
2022/11/01 06:28:03;;;;;;;0.10;0.10;;;;;;;14.74;55.89;101049.94;5094902;28;20165;-79
2022/11/01 06:30:29;;;;;;;0.10;0.10;;;;;;;14.80;56.40;101042.59;5091751;28;20039;-79
2022/11/01 06:32:59;;;;;;;0.10;0.10;;;;;;;14.75;56.23;101055.22;5089875;28;20110;-78
2022/11/01 06:35:26;;;;;;;0.10;0.10;;;;;;;14.57;56.25;101046.88;5086626;28;20078;-78
2022/11/01 06:37:53;;;;;;;0.10;0.10;;;;;;;14.66;56.26;101052.88;5094362;28;20070;-78
2022/11/01 06:40:19;;;;;;;0.10;0.10;;;;;;;14.69;56.57;101056.31;5091571;28;20744;-79
2022/11/01 06:42:45;;;;;;;2.47;1.02;;;;;;;14.57;56.70;101073.53;5089589;28;20032;-79
2022/11/01 06:45:12;;;;;;;0.10;0.10;;;;;;;14.46;57.15;101070.38;5091842;28;20083;-79
2022/11/01 06:47:38;;;;;;;0.10;0.10;;;;;;;14.57;57.06;101072.69;5093191;28;20087;-79
2022/11/01 06:50:04;;;;;;;0.20;0.20;;;;;;;14.53;57.05;101077.25;5091901;28;20054;-79
2022/11/01 06:52:30;;;;;;;0.10;0.10;;;;;;;14.50;57.20;101069.34;5082027;28;20028;-79
2022/11/01 06:54:56;;;;;;;0.08;0.08;;;;;;;14.48;57.17;101087.19;5091339;28;20040;-79
2022/11/01 06:57:22;;;;;;;0.10;0.10;;;;;;;14.46;57.36;101085.50;5090180;28;20024;-79
2022/11/01 06:59:48;;;;;;;0.10;0.10;;;;;;;14.46;57.58;101106.81;5094618;28;20505;-79
2022/11/01 07:02:16;;;;;;;0.10;0.10;;;;;;;14.48;57.67;101089.84;5094145;28;20051;-79
2022/11/01 07:04:42;;;;;;;0.10;0.10;;;;;;;14.45;58.00;101111.28;5091900;28;20036;-79
2022/11/01 07:07:08;;;;;;;0.13;0.13;;;;;;;14.41;57.96;101106.97;5091840;28;20084;-79
2022/11/01 07:09:34;;;;;;;0.03;0.03;;;;;;;14.45;58.12;101118.41;5092627;28;20034;-79
2022/11/01 07:12:00;;;;;;;0.10;0.10;;;;;;;14.42;58.15;101116.72;5089748;28;20521;-79
2022/11/01 07:14:27;;;;;;;0.10;0.10;;;;;;;14.26;58.00;101126.97;5091740;28;20092;-79
2022/11/01 07:16:53;;;;;;;2.60;1.40;;;;;;;14.39;58.22;101151.44;5093436;28;20012;-79
2022/11/01 07:19:21;;;;;;;0.10;0.10;;;;;;;14.35;58.37;101147.16;5092642;28;20032;-78
2022/11/01 07:21:47;;;;;;;0.20;0.20;;;;;;;14.34;58.48;101148.94;5091817;28;20119;-78
2022/11/01 07:24:13;;;;;;;0.20;0.20;;;;;;;14.42;58.44;101156.69;5090564;28;20112;-78
2022/11/01 07:26:39;;;;;;;0.65;0.55;;;;;;;14.38;58.24;101163.03;5092018;28;20043;-78
2022/11/01 07:29:05;;;;;;;0.10;0.10;;;;;;;14.46;58.54;101171.66;5087309;28;20028;-78
2022/11/01 07:31:32;;;;;;;0.10;0.10;;;;;;;14.44;58.63;101181.50;5085785;28;20027;-78
2022/11/01 07:33:58;;;;;;;0.10;0.10;;;;;;;14.42;58.70;101194.03;5087042;28;20570;-79
2022/11/01 07:36:24;;;;;;;1.48;0.50;;;;;;;14.42;58.66;101179.81;5091301;28;20483;-79
2022/11/01 07:38:50;;;;;;;1.00;0.80;;;;;;;14.44;59.10;101189.50;5094240;28;20039;-80
2022/11/01 07:41:17;;;;;;;0.10;0.10;;;;;;;14.43;58.91;101202.88;5092653;28;20032;-79
2022/11/01 07:43:43;;;;;;;0.10;0.10;;;;;;;14.37;58.83;101211.97;5089251;28;20040;-79
2022/11/01 07:46:09;;;;;;;0.10;0.10;;;;;;;14.51;59.26;101191.06;5093767;28;20036;-79
2022/11/01 07:48:35;;;;;;;0.10;0.10;;;;;;;14.48;59.07;101192.94;5092526;28;20024;-77
2022/11/01 07:51:04;;;;;;;0.10;0.10;;;;;;;14.42;59.34;101207.34;5089722;28;20112;-78
2022/11/01 07:53:30;;;;;;;2.40;1.50;;;;;;;14.51;59.28;101204.38;5089973;28;20376;-80
2022/11/01 07:55:58;;;;;;;0.10;0.10;;;;;;;14.50;59.57;101217.78;5093097;28;20036;-79
2022/11/01 07:58:24;;;;;;;0.20;0.20;;;;;;;14.47;59.50;101216.06;5091849;28;20096;-79
2022/11/01 08:00:50;;;;;;;0.15;0.15;;;;;;;14.47;59.50;101224.06;5090007;28;20036;-80
2022/11/01 08:03:18;;;;;;;0.10;0.10;;;;;;;14.51;59.34;101211.53;5093729;28;20036;-80
2022/11/01 08:05:46;;;;;;;0.20;0.20;;;;;;;14.57;59.26;101209.53;5091003;28;20032;-79
2022/11/01 08:08:14;;;;;;;0.10;0.10;;;;;;;14.47;59.41;101223.22;5092905;28;20047;-80
2022/11/01 08:10:41;;;;;;;0.22;0.22;;;;;;;14.56;59.50;101223.78;5090284;28;20032;-80
2022/11/01 08:15:47;;;;;;;0.10;0.10;;;;;;;14.64;59.29;101254.69;5086318;27;20399;-79
2022/11/01 08:18:14;;;;;;;0.10;0.10;;;;;;;14.66;59.64;101248.41;5075550;28;20036;-78
2022/11/01 08:20:40;;;;;;;0.10;0.10;;;;;;;14.65;59.59;101264.47;5061085;28;20029;-79
2022/11/01 08:23:07;;;;;;;0.10;0.10;;;;;;;14.61;59.25;101249.47;5057658;28;20045;-77
2022/11/01 08:25:33;;;;;;;0.10;0.10;;;;;;;14.65;59.12;101254.66;5071993;28;20023;-78
2022/11/01 08:28:02;;;;;;;0.10;0.10;;;;;;;14.72;59.04;101266.03;5066627;28;20674;-78
2022/11/01 08:30:29;;;;;;;0.13;0.13;;;;;;;14.63;59.22;101269.81;5068621;28;20115;-78
2022/11/01 08:33:02;;;;;;;0.10;0.10;;;;;;;14.61;58.86;101273.47;5067732;28;20037;-77
2022/11/01 08:35:33;;;;;;;0.10;0.10;;;;;;;14.63;58.91;101268.94;5052716;28;20045;-78
2022/11/01 08:38:02;;;;;;;0.15;0.15;;;;;;;14.70;58.96;101275.88;5050094;28;20037;-78
2022/11/01 08:40:30;;;;;;;0.20;0.20;;;;;;;14.74;58.95;101277.50;5057415;28;20056;-79
2022/11/01 08:42:57;;;;;;;0.10;0.10;;;;;;;14.73;59.03;101286.47;5057586;28;20060;-78
2022/11/01 08:45:24;;;;;;;0.10;0.10;;;;;;;14.78;58.78;101289.84;5056832;28;20024;-79
2022/11/01 08:47:58;;;;;;;0.10;0.10;;;;;;;14.81;59.31;101279.06;5065852;28;20103;-79
2022/11/01 08:50:25;;;;;;;1.10;1.00;;;;;;;14.79;58.82;101296.94;5059681;28;20040;-78
2022/11/01 08:52:51;;;;;;;0.10;0.10;;;;;;;14.90;58.74;101299.25;5057360;28;20549;-78
2022/11/01 08:55:17;;;;;;;0.10;0.10;;;;;;;14.90;58.95;101309.06;5055792;28;20090;-78
2022/11/01 08:57:43;;;;;;;0.10;0.10;;;;;;;14.96;58.97;101315.09;5057935;28;20060;-79
2022/11/01 09:00:12;;;;;;;0.10;0.10;;;;;;;15.07;58.79;101313.91;5056116;28;20055;-79
2022/11/01 09:02:39;;;;;;;0.10;0.10;;;;;;;14.99;58.52;101319.44;5056504;28;20037;-84
2022/11/01 09:05:06;;;;;;;0.10;0.10;;;;;;;14.98;58.79;101312.38;5062780;28;20478;-78
2022/11/01 09:07:35;;;;;;;0.10;0.10;;;;;;;15.05;59.15;101319.25;5059526;28;20025;-79
2022/11/01 09:10:02;;;;;;;0.10;0.10;;;;;;;15.00;59.02;101322.09;5066751;28;20035;-79
2022/11/01 09:12:29;;;;;;;5.20;0.50;;;;;;;15.20;59.08;101340.16;5061820;28;20032;-79
2022/11/01 09:14:55;;;;;;;0.10;0.10;;;;;;;15.25;59.10;101336.44;5066032;28;20560;-78
2022/11/01 09:17:22;;;;;;;0.10;0.10;;;;;;;15.23;58.60;101338.28;5060634;28;20029;-79
2022/11/01 09:19:48;;;;;;;0.10;0.10;;;;;;;15.37;58.91;101344.06;5060753;28;20126;-78
2022/11/01 09:22:14;;;;;;;0.10;0.10;;;;;;;15.43;58.89;101340.34;5061245;28;20104;-79
2022/11/01 09:24:42;;;;;;;0.10;0.10;;;;;;;15.48;58.16;101341.91;5059104;28;20494;-79
2022/11/01 09:27:11;;;;;;;0.43;0.43;;;;;;;15.59;58.30;101348.69;5040659;28;20497;-78
2022/11/01 09:29:40;;;;;;;0.10;0.10;;;;;;;15.68;57.84;101351.09;5041589;28;20041;-78
2022/11/01 09:32:07;;;;;;;0.10;0.10;;;;;;;15.63;57.58;101358.38;5038134;28;20056;-78
2022/11/01 09:34:33;;;;;;;0.10;0.10;;;;;;;15.69;57.75;101366.19;5043481;28;20040;-78
2022/11/01 09:37:04;;;;;;;5.05;0.90;;;;;;;15.71;57.59;101375.00;5043687;28;20037;-78
2022/11/01 09:39:30;;;;;;;0.10;0.10;;;;;;;15.83;58.02;101371.09;5038523;28;20037;-80
2022/11/01 09:42:02;;;;;;;1.25;1.25;;;;;;;15.91;57.83;101370.84;5048407;28;20427;-78
2022/11/01 09:44:32;;;;;;;0.15;0.15;;;;;;;15.89;57.30;101370.00;5041186;28;20494;-78
2022/11/01 09:47:03;;;;;;;0.10;0.10;;;;;;;15.88;57.25;101373.63;5047304;28;20035;-78
2022/11/01 09:49:34;;;;;;;6.70;1.75;;;;;;;16.00;57.78;101367.88;5054566;28;20731;-78
2022/11/01 09:52:00;;;;;;;0.25;0.25;;;;;;;15.98;57.69;101370.56;5055714;28;20025;-78
2022/11/01 09:54:27;;;;;;;0.20;0.20;;;;;;;16.03;57.38;101378.44;5046857;28;20064;-78
2022/11/01 09:59:51;;;;;;;0.30;0.30;;;;;;;16.09;57.46;101402.28;5086818;27;20972;-77
2022/11/01 10:08:36;;;;;;;0.43;0.43;;;;;;;16.39;57.06;101388.78;5073649;27;20148;-78
2022/11/01 10:11:21;;;;;;;0.10;0.10;;;;;;;16.42;56.71;101380.63;5056909;28;20037;-78
2022/11/01 10:17:02;;;;;;;0.35;0.35;;;;;;;16.55;56.16;101390.88;5088795;27;20857;-78
2022/11/01 10:19:32;;;;;;;0.57;0.57;;;;;;;16.58;55.93;101394.31;5064543;28;20514;-79
2022/11/01 10:22:12;;;;;;;0.08;0.08;;;;;;;16.64;56.33;101395.91;5067399;28;20037;-78
2022/11/01 10:24:55;;;;;;;0.50;0.50;;;;;;;16.66;56.40;101404.78;5070133;28;20028;-78
2022/11/01 10:27:53;;;;;;;0.10;0.10;;;;;;;16.75;56.29;101399.06;5062426;28;20094;-78
2022/11/01 10:30:20;;;;;;;0.10;0.10;;;;;;;16.77;55.91;101399.91;5063310;28;20384;-78
2022/11/01 10:33:20;;;;;;;0.10;0.10;;;;;;;16.89;55.59;101416.41;5062916;28;20655;-78
2022/11/01 10:35:54;;;;;;;0.95;0.95;;;;;;;16.84;55.76;101413.91;5072624;28;20028;-77
2022/11/01 10:41:35;;;;;;;0.10;0.10;;;;;;;16.92;55.48;101421.69;5070778;27;20484;-78
2022/11/01 10:44:06;;;;;;;0.55;0.55;;;;;;;16.91;55.44;101425.25;5050146;28;20033;-78
2022/11/01 10:46:39;;;;;;;0.10;0.10;;;;;;;17.03;55.27;101407.91;5048148;28;20394;-78
2022/11/01 10:49:16;;;;;;;0.10;0.10;;;;;;;17.02;55.22;101407.00;5045947;28;20025;-78
2022/11/01 10:51:43;;;;;;;0.10;0.10;;;;;;;16.98;54.64;101433.03;5041425;28;20478;-77
2022/11/01 10:54:16;;;;;;;2.95;1.42;;;;;;;17.10;54.49;101417.44;5051115;28;20074;-78
2022/11/01 10:56:46;;;;;;;2.20;1.95;;;;;;;17.12;54.74;101418.25;5047285;28;20052;-78
2022/11/01 10:59:21;;;;;;;0.10;0.10;;;;;;;17.13;54.25;101420.88;5049312;28;20116;-78
2022/11/01 11:01:59;;;;;;;0.10;0.10;;;;;;;17.17;53.91;101427.00;5039679;28;20044;-78
2022/11/01 11:04:27;;;;;;;0.10;0.10;;;;;;;17.10;54.02;101420.97;5048666;28;20043;-77
2022/11/01 11:06:55;;;;;;;0.10;0.10;;;;;;;17.24;54.39;101417.78;5045722;28;20029;-78
2022/11/01 11:12:10;;;;;;;0.10;0.10;;;;;;;17.42;53.87;101401.91;5079290;27;20411;-76
2022/11/01 11:14:40;;;;;;;0.10;0.10;;;;;;;17.37;54.02;101402.13;5064859;28;20029;-76
2022/11/01 11:17:34;;;;;;;0.10;0.10;;;;;;;17.50;53.89;101401.63;5069759;28;20111;-77
2022/11/01 11:20:04;;;;;;;0.17;0.17;;;;;;;17.54;53.96;101405.91;5059833;28;20585;-77
2022/11/01 11:22:35;;;;;;;0.10;0.10;;;;;;;17.59;54.06;101402.09;5069462;28;20029;-78
2022/11/01 11:25:02;;;;;;;0.10;0.10;;;;;;;17.55;52.84;101421.06;5064652;28;20041;-78
2022/11/01 11:27:31;;;;;;;0.10;0.10;;;;;;;17.61;52.84;101416.31;5061645;28;20021;-77
2022/11/01 11:30:01;;;;;;;0.10;0.10;;;;;;;17.75;53.27;101406.84;5063626;28;20037;-78
2022/11/01 11:32:33;;;;;;;0.10;0.10;;;;;;;17.75;53.25;101405.03;5057916;28;20039;-77
2022/11/01 11:35:05;;;;;;;0.10;0.10;;;;;;;17.72;52.77;101396.25;5058525;28;20064;-77
2022/11/01 11:37:37;;;;;;;0.10;0.10;;;;;;;17.69;52.36;101413.31;5054958;28;20133;-77
2022/11/01 11:40:25;;;;;;;0.10;0.10;;;;;;;17.90;52.60;101416.06;5059120;28;20091;-78
2022/11/01 11:42:54;;;;;;;0.10;0.10;;;;;;;17.90;52.80;101408.88;5052520;28;20051;-78
2022/11/01 11:45:26;;;;;;;4.15;0.52;;;;;;;17.97;52.17;101422.94;5058485;28;20033;-78
2022/11/01 11:47:53;;;;;;;0.10;0.10;;;;;;;18.00;51.38;101411.22;5062881;28;20043;-78
2022/11/01 11:52:59;;;;;;;0.10;0.10;;;;;;;18.07;51.65;101410.91;5058267;28;20411;-76
2022/11/01 11:58:04;;;;;;;0.10;0.10;;;;;;;18.18;51.39;101406.88;5098652;27;20494;-78
2022/11/01 12:00:33;;;;;;;0.10;0.10;;;;;;;18.19;50.58;101405.94;5101520;28;20031;-78
2022/11/01 12:03:04;;;;;;;0.10;0.10;;;;;;;18.18;50.25;101397.03;5093120;28;20572;-78
2022/11/01 12:05:33;;;;;;;0.10;0.10;;;;;;;18.29;50.51;101417.16;5091215;28;20028;-78
2022/11/01 12:07:59;;;;;;;0.10;0.10;;;;;;;18.17;50.38;101408.69;5096777;28;20032;-78
2022/11/01 12:21:35;;;;;;;0.10;0.10;;;;;;;18.47;49.86;101399.34;5070408;27;21094;-78
2022/11/01 12:24:14;;;;;;;0.10;0.10;;;;;;;18.43;49.63;101394.16;5072697;28;20041;-78
2022/11/01 12:26:42;;;;;;;0.10;0.10;;;;;;;18.52;50.10;101392.00;5069798;28;20025;-78
2022/11/01 12:32:17;;;;;;;0.10;0.10;;;;;;;18.56;49.43;101405.19;5095153;27;20125;-78
2022/11/01 12:34:46;;;;;;;0.10;0.10;;;;;;;18.62;49.54;101381.69;5094944;28;20028;-78
2022/11/01 12:37:23;;;;;;;0.10;0.10;;;;;;;18.65;49.04;101392.31;5084166;28;20037;-78
2022/11/01 12:39:57;;;;;;;0.10;0.10;;;;;;;18.65;48.65;101390.50;5077627;28;20031;-78
2022/11/01 12:45:27;;;;;;;2.42;1.13;;;;;;;18.76;49.67;101390.88;5041195;28;20807;-78
2022/11/01 12:48:02;;;;;;;0.10;0.10;;;;;;;18.91;48.95;101389.31;5027047;28;20033;-79
2022/11/01 12:50:40;;;;;;;0.10;0.10;;;;;;;18.93;48.81;101386.59;5027528;28;20029;-79
2022/11/01 12:55:47;;;;;;;0.10;0.10;;;;;;;19.04;48.21;101378.91;5106615;27;1200513;-78
2022/11/01 12:58:17;;;;;;;0.10;0.10;;;;;;;19.19;48.51;101376.41;5115766;28;20043;-78